Time;durP1;ratioP1;P1;durP2;ratioP2;P2;SDS_P1;SDS_P2;PMS_P1;PMS_P2;Temp;Humidity;BMP_temperature;BMP_pressure;BME280_temperature;BME280_humidity;BME280_pressure;Samples;Min_cycle;Max_cycle;Signal;HPM_P1;HPM_P2
2024/01/14 00:00:34;;;;;;;108.90;66.68;;;-2.60;99.90;;;;;;4954315;29;20035;-74
2024/01/14 00:03:00;;;;;;;198.55;116.90;;;-2.50;99.90;;;;;;4953784;29;20435;-75
2024/01/14 00:05:26;;;;;;;227.82;129.85;;;-2.50;99.90;;;;;;4953426;29;20424;-73
2024/01/14 00:07:53;;;;;;;163.23;98.53;;;-2.50;99.90;;;;;;4954699;29;20031;-74
2024/01/14 00:10:18;;;;;;;114.97;70.93;;;-2.60;99.90;;;;;;4954742;29;20050;-75
2024/01/14 00:12:45;;;;;;;158.63;92.50;;;-2.80;99.90;;;;;;4954141;29;20035;-74
2024/01/14 00:15:11;;;;;;;162.93;99.10;;;-2.80;99.90;;;;;;4975925;23;20063;-75
2024/01/14 00:17:37;;;;;;;88.90;55.83;;;-2.80;99.90;;;;;;4953018;29;20023;-73
2024/01/14 00:20:04;;;;;;;80.72;47.95;;;-2.80;99.90;;;;;;4954701;29;20054;-74
2024/01/14 00:22:30;;;;;;;77.85;48.33;;;-2.80;99.90;;;;;;4954711;29;20494;-74
2024/01/14 00:24:56;;;;;;;85.47;49.75;;;-2.80;99.90;;;;;;4954701;29;20491;-74
2024/01/14 00:27:22;;;;;;;95.35;57.15;;;-2.80;99.90;;;;;;4936991;29;20182;-74
2024/01/14 00:29:49;;;;;;;112.45;72.55;;;-2.90;99.90;;;;;;4954599;29;20085;-75
2024/01/14 00:32:15;;;;;;;118.22;68.55;;;-2.90;99.90;;;;;;4954586;29;20035;-74
2024/01/14 00:34:44;;;;;;;106.10;61.08;;;-2.90;99.90;;;;;;4954516;29;20501;-75
2024/01/14 00:37:10;;;;;;;108.30;71.28;;;-3.00;99.90;;;;;;4961945;23;20570;-74
2024/01/14 00:39:37;;;;;;;172.35;109.03;;;-3.00;99.90;;;;;;4936974;29;20047;-74
2024/01/14 00:42:05;;;;;;;122.15;75.15;;;-3.00;99.90;;;;;;4936605;29;20049;-75
2024/01/14 00:44:31;;;;;;;164.07;95.80;;;-2.90;99.90;;;;;;4954521;29;20051;-74
2024/01/14 00:47:04;;;;;;;117.88;69.47;;;-2.90;99.90;;;;;;4954186;28;20548;-75
2024/01/14 00:49:33;;;;;;;104.70;70.15;;;-2.90;99.90;;;;;;4919164;29;20032;-75
2024/01/14 00:51:59;;;;;;;111.03;68.93;;;-2.90;99.90;;;;;;4955662;28;20555;-74
2024/01/14 00:54:25;;;;;;;131.73;79.35;;;-3.00;99.90;;;;;;4956441;29;20046;-74
2024/01/14 00:56:51;;;;;;;124.78;73.72;;;-3.00;99.90;;;;;;4941412;28;20031;-74
2024/01/14 00:59:17;;;;;;;137.20;79.25;;;-2.90;99.90;;;;;;4941795;29;20027;-75
2024/01/14 01:01:43;;;;;;;128.02;80.90;;;-3.00;99.90;;;;;;4957559;29;20031;-75
2024/01/14 01:04:08;;;;;;;116.85;70.80;;;-2.90;99.90;;;;;;4957844;28;20043;-75
2024/01/14 01:06:41;;;;;;;111.20;73.22;;;-3.00;99.90;;;;;;4957641;28;20031;-75
2024/01/14 01:09:10;;;;;;;121.88;80.25;;;-3.00;99.90;;;;;;4924929;29;20027;-75
2024/01/14 01:11:45;;;;;;;142.05;90.38;;;-2.90;99.90;;;;;;4924099;28;20051;-74
2024/01/14 01:14:14;;;;;;;122.20;78.85;;;-3.00;99.90;;;;;;4910666;29;20084;-74
2024/01/14 01:16:40;;;;;;;123.20;80.47;;;-3.30;99.90;;;;;;4956610;28;20042;-77
2024/01/14 01:19:05;;;;;;;125.30;79.57;;;-3.30;99.90;;;;;;4957191;28;20027;-74
2024/01/14 01:21:31;;;;;;;119.75;80.57;;;-3.60;99.90;;;;;;4957283;29;20488;-75
2024/01/14 01:23:58;;;;;;;121.80;76.50;;;-3.50;99.90;;;;;;4957004;29;20089;-74
2024/01/14 01:26:24;;;;;;;125.85;75.93;;;-3.60;99.90;;;;;;4956994;29;20062;-75
2024/01/14 01:28:50;;;;;;;111.40;70.88;;;-3.70;99.90;;;;;;4955976;29;20081;-75
2024/01/14 01:31:23;;;;;;;113.20;69.72;;;-3.70;99.90;;;;;;4956861;29;20039;-75
2024/01/14 01:33:52;;;;;;;105.28;63.40;;;-3.60;99.90;;;;;;4948725;28;20020;-75
2024/01/14 01:36:17;;;;;;;98.30;57.78;;;-3.70;99.90;;;;;;4945854;28;20015;-77
2024/01/14 01:38:43;;;;;;;91.20;59.70;;;-3.70;99.90;;;;;;4946130;29;20031;-74
2024/01/14 01:41:09;;;;;;;106.00;63.70;;;-3.80;99.90;;;;;;4959928;23;20062;-75
2024/01/14 01:43:38;;;;;;;118.35;73.97;;;-3.80;99.90;;;;;;4955162;29;20039;-77
2024/01/14 01:46:08;;;;;;;126.50;76.72;;;-3.90;99.90;;;;;;4954674;29;20118;-75
2024/01/14 01:48:34;;;;;;;115.60;76.10;;;-3.90;99.90;;;;;;4951614;29;20078;-76
2024/01/14 01:51:00;;;;;;;112.97;73.50;;;-3.90;99.90;;;;;;4951596;29;20019;-75
2024/01/14 01:53:26;;;;;;;112.25;73.78;;;-3.80;99.90;;;;;;4955191;29;20027;-76
2024/01/14 01:55:53;;;;;;;100.55;63.40;;;-3.80;99.90;;;;;;4954906;29;20028;-76
2024/01/14 01:58:20;;;;;;;105.30;66.70;;;-3.80;99.90;;;;;;4955271;29;20012;-75
2024/01/14 02:00:49;;;;;;;109.35;68.20;;;-3.80;99.90;;;;;;4954732;29;20037;-78
2024/01/14 02:03:16;;;;;;;100.05;63.38;;;-3.80;99.90;;;;;;4952480;28;20578;-77
2024/01/14 02:05:44;;;;;;;90.15;59.13;;;-3.70;99.90;;;;;;4954748;29;20038;-79
2024/01/14 02:08:13;;;;;;;95.53;59.55;;;-3.80;99.90;;;;;;4954981;29;20019;-76
2024/01/14 02:10:39;;;;;;;90.72;59.58;;;-3.80;99.90;;;;;;4951044;29;20035;-75
2024/01/14 02:13:05;;;;;;;98.85;60.63;;;-3.70;99.90;;;;;;4954710;29;20016;-76
2024/01/14 02:15:36;;;;;;;96.07;59.33;;;-3.70;99.90;;;;;;4954644;29;20032;-75
2024/01/14 02:18:04;;;;;;;102.72;65.05;;;-3.90;99.90;;;;;;4936391;29;20036;-74
2024/01/14 02:20:30;;;;;;;96.90;62.80;;;-3.90;99.90;;;;;;4953442;29;20054;-76
2024/01/14 02:22:57;;;;;;;97.13;61.72;;;-3.80;99.90;;;;;;4972291;23;20495;-76
2024/01/14 02:25:24;;;;;;;105.80;66.65;;;-3.80;99.90;;;;;;4952724;28;20043;-75
2024/01/14 02:27:50;;;;;;;108.40;66.22;;;-3.90;99.90;;;;;;4969744;28;20081;-78
2024/01/14 02:30:17;;;;;;;98.78;65.60;;;-3.90;99.90;;;;;;4960589;28;20020;-75
2024/01/14 02:32:43;;;;;;;128.52;80.20;;;-3.90;99.90;;;;;;4957238;28;20041;-75
2024/01/14 02:35:09;;;;;;;107.35;69.97;;;-3.90;99.90;;;;;;4957943;28;20110;-76
2024/01/14 02:37:38;;;;;;;110.45;71.13;;;-3.90;99.90;;;;;;4965749;28;20019;-75
2024/01/14 02:40:05;;;;;;;120.68;75.45;;;-3.80;99.90;;;;;;4959260;28;20028;-75
2024/01/14 02:42:31;;;;;;;121.50;75.60;;;-3.80;99.90;;;;;;4963812;28;20031;-75
2024/01/14 02:44:56;;;;;;;131.32;80.57;;;-3.80;99.90;;;;;;4952770;28;20039;-76
2024/01/14 02:47:22;;;;;;;122.22;80.90;;;-3.80;99.90;;;;;;4960119;28;20027;-74
2024/01/14 02:49:48;;;;;;;121.35;75.43;;;-3.70;99.90;;;;;;4960863;28;20023;-75
2024/01/14 02:52:14;;;;;;;134.05;83.90;;;-3.80;99.90;;;;;;4953972;28;20041;-77
2024/01/14 02:54:40;;;;;;;131.13;78.78;;;-3.80;99.90;;;;;;4965119;28;20054;-74
2024/01/14 02:57:06;;;;;;;132.38;81.68;;;-3.70;99.90;;;;;;4960590;28;20058;-74
2024/01/14 02:59:32;;;;;;;124.63;82.93;;;-3.70;99.90;;;;;;4966887;28;20027;-75
2024/01/14 03:01:58;;;;;;;129.73;84.30;;;-3.90;99.90;;;;;;4947061;28;20464;-75
2024/01/14 03:04:24;;;;;;;128.23;84.13;;;-3.80;99.90;;;;;;4957150;28;20081;-76
2024/01/14 03:06:50;;;;;;;137.10;84.22;;;-3.80;99.90;;;;;;4957922;28;20502;-75
2024/01/14 03:09:16;;;;;;;126.65;82.57;;;-3.80;99.90;;;;;;4945722;28;20031;-73
2024/01/14 03:11:42;;;;;;;128.77;83.45;;;-3.80;99.90;;;;;;4955873;28;20475;-76
2024/01/14 03:14:07;;;;;;;121.32;81.20;;;-3.80;99.90;;;;;;4965445;28;20093;-75
2024/01/14 03:16:33;;;;;;;124.53;83.10;;;-3.80;99.90;;;;;;4959172;28;20030;-74
2024/01/14 03:19:02;;;;;;;163.23;109.88;;;-3.80;99.90;;;;;;4963370;28;20027;-75
2024/01/14 03:21:28;;;;;;;158.90;103.35;;;-3.90;99.90;;;;;;4959544;28;20386;-76
2024/01/14 03:23:53;;;;;;;159.05;104.35;;;-3.90;99.90;;;;;;4971075;28;20043;-78
2024/01/14 03:26:19;;;;;;;166.63;110.22;;;-3.80;99.90;;;;;;4926747;28;20035;-73
2024/01/14 03:28:45;;;;;;;162.63;100.10;;;-3.80;99.90;;;;;;4958363;28;20023;-74
2024/01/14 03:31:15;;;;;;;209.43;116.60;;;-3.70;99.90;;;;;;4965608;28;20027;-75
2024/01/14 03:33:42;;;;;;;156.85;97.22;;;-3.70;99.90;;;;;;4968220;28;20031;-76
2024/01/14 03:36:08;;;;;;;147.30;98.03;;;-3.70;99.90;;;;;;4955314;28;20050;-74
2024/01/14 03:38:34;;;;;;;154.63;96.80;;;-3.60;99.90;;;;;;4955219;28;20034;-76
2024/01/14 03:41:00;;;;;;;161.82;101.18;;;-3.60;99.90;;;;;;4957647;28;20019;-75
2024/01/14 03:43:26;;;;;;;162.65;99.07;;;-3.60;99.90;;;;;;4959947;28;20399;-76
2024/01/14 03:45:52;;;;;;;156.75;95.90;;;-3.50;99.90;;;;;;4964057;28;20387;-77
2024/01/14 03:48:17;;;;;;;156.55;99.40;;;-3.50;99.90;;;;;;4958550;28;20489;-75
2024/01/14 03:50:43;;;;;;;159.38;99.97;;;-3.50;99.90;;;;;;4954207;28;20058;-75
2024/01/14 03:53:11;;;;;;;153.18;96.28;;;-3.50;99.90;;;;;;4966348;28;20391;-75
2024/01/14 03:55:37;;;;;;;129.07;82.15;;;-3.50;99.90;;;;;;4967879;28;20066;-75
2024/01/14 03:58:04;;;;;;;125.22;81.22;;;-3.50;99.90;;;;;;4963486;28;20015;-76
2024/01/14 04:00:30;;;;;;;125.45;80.20;;;-3.60;99.90;;;;;;4962749;28;20031;-75
2024/01/14 04:02:56;;;;;;;115.65;73.55;;;-3.60;99.90;;;;;;4966923;28;20049;-78
2024/01/14 04:05:22;;;;;;;112.40;72.85;;;-3.80;99.90;;;;;;4961368;28;20539;-74
2024/01/14 04:07:49;;;;;;;102.47;64.68;;;-3.80;99.90;;;;;;4957783;28;20019;-74
2024/01/14 04:10:16;;;;;;;108.40;65.40;;;-3.80;99.90;;;;;;4962243;28;20023;-75
2024/01/14 04:12:42;;;;;;;105.45;66.00;;;-3.80;99.90;;;;;;4957125;28;20030;-76
2024/01/14 04:15:09;;;;;;;100.55;66.05;;;-3.80;99.90;;;;;;4953456;28;21322;-75
2024/01/14 04:17:35;;;;;;;109.07;67.55;;;-3.80;99.90;;;;;;4942323;28;20067;-75
2024/01/14 04:20:02;;;;;;;117.93;65.80;;;-3.70;99.90;;;;;;4961866;28;20382;-77
2024/01/14 04:22:35;;;;;;;119.82;70.68;;;-3.70;99.90;;;;;;4952767;28;20062;-78
2024/01/14 04:25:01;;;;;;;171.63;98.90;;;-3.60;99.90;;;;;;4976784;28;20038;-77
2024/01/14 04:27:27;;;;;;;178.10;96.78;;;-3.60;99.90;;;;;;4968371;28;20053;-76
2024/01/14 04:29:52;;;;;;;117.97;69.15;;;-3.60;99.90;;;;;;4970106;28;20030;-76
2024/01/14 04:32:18;;;;;;;111.65;62.55;;;-3.50;99.90;;;;;;4981170;28;20030;-75
2024/01/14 04:34:44;;;;;;;127.70;69.05;;;-3.50;99.90;;;;;;4977737;28;20035;-75
2024/01/14 04:37:13;;;;;;;159.90;68.75;;;-3.50;99.90;;;;;;4963839;28;20043;-75
2024/01/14 04:39:39;;;;;;;162.13;74.03;;;-3.50;99.90;;;;;;4983788;28;20027;-76
2024/01/14 04:42:05;;;;;;;126.55;69.95;;;-3.50;99.90;;;;;;4964261;28;20106;-74
2024/01/14 04:44:31;;;;;;;107.70;62.58;;;-3.50;99.90;;;;;;4982747;28;20043;-78
2024/01/14 04:46:57;;;;;;;118.25;68.90;;;-3.50;99.90;;;;;;4983148;28;20030;-76
2024/01/14 04:49:23;;;;;;;143.00;79.93;;;-3.50;99.90;;;;;;4980999;28;20027;-72
2024/01/14 04:51:49;;;;;;;141.23;80.25;;;-3.50;99.90;;;;;;4979726;28;20031;-75
2024/01/14 04:54:15;;;;;;;126.40;80.35;;;-3.50;99.90;;;;;;4962944;28;20031;-75
2024/01/14 04:56:41;;;;;;;134.98;81.35;;;-3.50;99.90;;;;;;4964007;28;20027;-76
2024/01/14 04:59:07;;;;;;;134.02;83.40;;;-3.60;99.90;;;;;;4984806;28;20036;-76
2024/01/14 05:01:34;;;;;;;145.98;88.70;;;-3.60;99.90;;;;;;4960913;28;20053;-77
2024/01/14 05:04:00;;;;;;;144.70;86.90;;;-3.60;99.90;;;;;;4967612;28;20039;-75
2024/01/14 05:06:26;;;;;;;103.32;69.18;;;-3.50;99.90;;;;;;4986791;28;20138;-75
2024/01/14 05:08:52;;;;;;;118.75;71.75;;;-3.60;99.90;;;;;;4977258;28;20565;-75
2024/01/14 05:11:18;;;;;;;118.00;71.32;;;-3.50;99.90;;;;;;4986062;28;20441;-75
2024/01/14 05:13:44;;;;;;;155.07;91.82;;;-3.50;99.90;;;;;;4986584;28;20390;-77
2024/01/14 05:16:10;;;;;;;126.85;78.47;;;-3.50;99.90;;;;;;4974299;28;20509;-75
2024/01/14 05:18:36;;;;;;;147.05;86.80;;;-3.60;99.90;;;;;;4960306;28;20030;-76
2024/01/14 05:21:03;;;;;;;148.43;91.30;;;-3.60;99.90;;;;;;4978172;28;20035;-75
2024/01/14 05:23:29;;;;;;;145.20;89.38;;;-3.50;99.90;;;;;;4977304;28;20047;-75
2024/01/14 05:25:55;;;;;;;137.65;88.47;;;-3.50;99.90;;;;;;4964659;28;20399;-76
2024/01/14 05:28:20;;;;;;;137.00;85.25;;;-3.40;99.90;;;;;;4993779;28;20026;-76
2024/01/14 05:30:47;;;;;;;120.25;75.80;;;-3.40;99.90;;;;;;4995809;28;20413;-75
2024/01/14 05:33:13;;;;;;;125.20;75.95;;;-3.40;99.90;;;;;;4995910;28;20042;-75
2024/01/14 05:35:39;;;;;;;122.53;78.38;;;-3.30;99.90;;;;;;4995770;28;20073;-74
2024/01/14 05:38:05;;;;;;;131.45;73.80;;;-3.30;99.90;;;;;;4990848;28;20030;-75
2024/01/14 05:40:32;;;;;;;144.18;78.38;;;-3.40;99.90;;;;;;4995586;28;20018;-75
2024/01/14 05:42:58;;;;;;;143.57;83.90;;;-3.40;99.90;;;;;;4995683;28;20390;-75
2024/01/14 05:45:23;;;;;;;164.43;92.72;;;-3.50;99.90;;;;;;4981023;28;20038;-75
2024/01/14 05:47:50;;;;;;;157.23;92.38;;;-3.50;99.90;;;;;;4968190;28;20039;-75
2024/01/14 05:50:21;;;;;;;169.57;100.90;;;-3.50;99.90;;;;;;4975015;28;20085;-75
2024/01/14 05:52:48;;;;;;;188.65;96.25;;;-3.50;99.90;;;;;;4995365;28;20121;-75
2024/01/14 05:55:14;;;;;;;166.13;94.93;;;-3.60;99.90;;;;;;4995502;28;20142;-75
2024/01/14 05:57:40;;;;;;;162.10;95.35;;;-3.50;99.90;;;;;;4995466;28;20034;-76
2024/01/14 06:00:07;;;;;;;159.18;90.68;;;-3.50;99.90;;;;;;4994686;28;20028;-75
2024/01/14 06:02:32;;;;;;;156.60;92.15;;;-3.50;99.90;;;;;;4995083;28;20540;-75
2024/01/14 06:04:58;;;;;;;151.82;89.57;;;-3.50;99.90;;;;;;4995090;28;20042;-75
2024/01/14 06:07:24;;;;;;;169.25;96.63;;;-3.40;99.90;;;;;;4995230;28;20474;-74
2024/01/14 06:09:50;;;;;;;149.88;84.85;;;-3.40;99.90;;;;;;4994730;28;20092;-75
2024/01/14 06:12:16;;;;;;;166.77;94.63;;;-3.50;99.90;;;;;;4995483;28;20478;-75
2024/01/14 06:14:42;;;;;;;170.20;101.85;;;-3.50;99.90;;;;;;4994801;28;20066;-74
2024/01/14 06:17:08;;;;;;;151.43;87.32;;;-3.40;99.90;;;;;;4995129;28;20520;-75
2024/01/14 06:19:34;;;;;;;141.60;82.70;;;-3.40;99.90;;;;;;4995097;28;20105;-75
2024/01/14 06:22:08;;;;;;;129.65;78.55;;;-3.40;99.90;;;;;;4988323;28;20556;-75
2024/01/14 06:24:34;;;;;;;133.93;79.82;;;-3.40;99.90;;;;;;4955620;28;20082;-76
2024/01/14 06:27:02;;;;;;;140.88;85.75;;;-3.40;99.90;;;;;;4994925;28;20529;-76
2024/01/14 06:29:29;;;;;;;133.48;85.15;;;-3.40;99.90;;;;;;4994738;28;20077;-76
2024/01/14 06:31:55;;;;;;;190.70;117.22;;;-3.50;99.90;;;;;;4994970;28;20501;-75
2024/01/14 06:34:31;;;;;;;166.30;108.25;;;-3.60;99.90;;;;;;4976919;28;20022;-75
2024/01/14 06:36:58;;;;;;;180.75;113.10;;;-3.60;99.90;;;;;;4994530;28;20106;-75
2024/01/14 06:39:24;;;;;;;189.38;112.78;;;-3.60;99.90;;;;;;4993963;28;20026;-74
2024/01/14 06:41:51;;;;;;;174.15;108.60;;;-3.50;99.90;;;;;;4994516;28;20045;-76
2024/01/14 06:44:17;;;;;;;185.70;118.28;;;-3.40;99.90;;;;;;4994497;28;20053;-75
2024/01/14 06:46:43;;;;;;;207.43;127.45;;;-3.50;99.90;;;;;;4994201;28;20033;-75
2024/01/14 06:49:10;;;;;;;227.82;141.32;;;-3.70;99.90;;;;;;4976333;28;20034;-75
2024/01/14 06:51:43;;;;;;;224.70;132.63;;;-3.70;99.90;;;;;;4994178;28;20066;-76
2024/01/14 06:54:09;;;;;;;226.05;140.52;;;-3.70;99.90;;;;;;4994256;28;20030;-75
2024/01/14 06:56:45;;;;;;;227.63;144.57;;;-3.60;99.90;;;;;;4994056;28;20026;-75
2024/01/14 06:59:20;;;;;;;231.27;150.40;;;-3.50;99.90;;;;;;4979363;28;20158;-74
2024/01/14 07:01:46;;;;;;;223.70;143.48;;;-3.40;99.90;;;;;;4966798;28;20026;-76
2024/01/14 07:04:13;;;;;;;239.50;154.90;;;-3.30;99.90;;;;;;4962342;28;20030;-74
2024/01/14 07:06:39;;;;;;;238.98;153.77;;;-3.20;99.90;;;;;;4990414;28;20482;-74
2024/01/14 07:09:12;;;;;;;233.85;150.05;;;-3.20;99.90;;;;;;4992802;28;20378;-74
2024/01/14 07:11:41;;;;;;;241.55;154.90;;;-3.30;99.90;;;;;;4975877;28;20037;-79
2024/01/14 07:14:14;;;;;;;252.20;165.02;;;-3.20;99.90;;;;;;4971617;28;20053;-75
2024/01/14 07:16:48;;;;;;;240.85;160.02;;;-3.10;99.90;;;;;;4994134;28;20470;-76
2024/01/14 07:19:14;;;;;;;240.25;155.60;;;-2.90;99.90;;;;;;4983452;28;20024;-75
2024/01/14 07:21:39;;;;;;;239.05;158.02;;;-2.90;99.90;;;;;;4989528;28;20378;-73
2024/01/14 07:24:06;;;;;;;231.00;156.32;;;-2.90;99.90;;;;;;4984837;28;20510;-73
2024/01/14 07:26:31;;;;;;;245.70;159.57;;;-2.80;99.90;;;;;;4990911;28;20030;-73
2024/01/14 07:28:58;;;;;;;232.95;155.07;;;-2.60;99.90;;;;;;4985159;28;20386;-73
2024/01/14 07:31:33;;;;;;;231.23;151.98;;;-2.50;99.90;;;;;;4988825;23;20027;-73
2024/01/14 07:33:58;;;;;;;242.48;156.82;;;-2.30;99.90;;;;;;4972399;28;20042;-74
2024/01/14 07:36:25;;;;;;;289.48;203.43;;;-2.30;99.90;;;;;;4964189;28;20107;-73
2024/01/14 07:38:58;;;;;;;305.88;210.75;;;-2.40;99.90;;;;;;4956097;28;20037;-73
2024/01/14 07:41:27;;;;;;;309.80;212.77;;;-2.40;99.90;;;;;;4956412;28;20086;-73
2024/01/14 07:43:52;;;;;;;301.80;204.95;;;-2.40;99.90;;;;;;4956022;28;20051;-75
2024/01/14 07:46:18;;;;;;;301.27;205.73;;;-2.40;99.90;;;;;;4944651;28;20031;-74
2024/01/14 07:48:44;;;;;;;258.98;168.63;;;-2.30;99.90;;;;;;4954992;28;20118;-76
2024/01/14 07:51:10;;;;;;;236.13;158.15;;;-2.20;99.90;;;;;;4974191;28;20534;-73
2024/01/14 07:53:41;;;;;;;196.00;130.48;;;-2.00;99.90;;;;;;4974416;28;20026;-74
2024/01/14 07:56:12;;;;;;;198.50;124.65;;;-1.90;99.90;;;;;;4940260;28;20039;-78
2024/01/14 07:58:43;;;;;;;187.95;124.93;;;-1.90;99.90;;;;;;4940429;28;20030;-74
2024/01/14 08:01:09;;;;;;;254.85;167.77;;;-1.80;99.90;;;;;;4938769;28;20031;-75
2024/01/14 08:03:42;;;;;;;235.32;162.75;;;-1.60;99.90;;;;;;4960714;28;20058;-75
2024/01/14 08:06:11;;;;;;;233.30;161.80;;;-1.60;99.90;;;;;;4960842;28;20038;-75
2024/01/14 08:08:39;;;;;;;223.23;158.20;;;-1.40;99.90;;;;;;4977825;28;20030;-74
2024/01/14 08:11:05;;;;;;;253.95;157.68;;;-1.30;99.90;;;;;;4977576;28;20387;-73
2024/01/14 08:13:31;;;;;;;220.70;152.52;;;-1.10;99.90;;;;;;4978138;28;20031;-75
2024/01/14 08:16:00;;;;;;;200.88;140.77;;;-0.90;99.90;;;;;;4990305;28;20027;-73
2024/01/14 08:18:29;;;;;;;196.75;134.98;;;-0.70;99.90;;;;;;4944431;28;20019;-73
2024/01/14 08:20:55;;;;;;;206.13;145.13;;;-0.50;99.90;;;;;;4977059;28;20034;-73
2024/01/14 08:23:20;;;;;;;224.20;150.07;;;-0.40;99.90;;;;;;4977947;28;20105;-73
2024/01/14 08:25:46;;;;;;;227.70;157.00;;;-0.50;99.90;;;;;;4972527;28;20114;-79
2024/01/14 08:28:12;;;;;;;259.23;181.95;;;-0.50;99.90;;;;;;4970091;28;20467;-76
2024/01/14 08:30:38;;;;;;;302.60;218.18;;;-0.40;99.90;;;;;;4967891;28;20386;-74
2024/01/14 08:33:04;;;;;;;334.38;236.85;;;-0.20;99.90;;;;;;4960880;28;20047;-74
2024/01/14 08:35:30;;;;;;;343.90;240.80;;;0.10;99.90;;;;;;4972019;28;20125;-75
2024/01/14 08:37:56;;;;;;;371.23;257.63;;;0.20;99.90;;;;;;4977174;28;20109;-75
2024/01/14 08:40:22;;;;;;;357.67;248.57;;;0.40;99.90;;;;;;4963546;28;20038;-75
2024/01/14 08:42:48;;;;;;;350.48;244.23;;;0.70;99.90;;;;;;4970460;28;20046;-74
2024/01/14 08:45:16;;;;;;;348.98;251.57;;;0.70;99.90;;;;;;4967548;28;20467;-76
2024/01/14 08:47:42;;;;;;;381.02;267.50;;;0.90;99.90;;;;;;4957940;29;20027;-74
2024/01/14 08:50:10;;;;;;;368.38;256.58;;;1.10;99.90;;;;;;4958035;29;20102;-75
2024/01/14 08:52:38;;;;;;;357.40;255.02;;;1.20;99.90;;;;;;4944634;28;20467;-76
2024/01/14 08:55:05;;;;;;;331.15;231.32;;;1.20;99.90;;;;;;4959882;28;20035;-75
2024/01/14 08:57:31;;;;;;;292.33;193.38;;;1.40;99.90;;;;;;4977176;28;20507;-75
2024/01/14 08:59:57;;;;;;;244.05;148.15;;;1.70;99.90;;;;;;4976541;28;20034;-74
2024/01/14 09:02:29;;;;;;;176.35;112.50;;;2.00;99.90;;;;;;4976073;28;20489;-74
2024/01/14 09:04:57;;;;;;;196.88;132.65;;;2.10;99.90;;;;;;4976709;28;20558;-75
2024/01/14 09:07:23;;;;;;;178.23;120.15;;;2.20;99.90;;;;;;4976729;28;20098;-75
2024/01/14 09:09:49;;;;;;;133.95;95.10;;;2.30;99.90;;;;;;4976945;28;20151;-75
2024/01/14 09:12:15;;;;;;;146.05;101.53;;;2.00;99.90;;;;;;4975926;28;20034;-74
2024/01/14 09:14:41;;;;;;;185.85;128.80;;;1.90;99.90;;;;;;4976989;28;20039;-74
2024/01/14 09:17:07;;;;;;;201.32;132.27;;;2.20;99.90;;;;;;4976386;28;20027;-75
2024/01/14 09:19:32;;;;;;;179.07;123.25;;;2.10;99.90;;;;;;4968734;28;20059;-74
2024/01/14 09:21:58;;;;;;;104.32;69.93;;;2.10;99.90;;;;;;4972246;28;20030;-73
2024/01/14 09:24:24;;;;;;;103.53;68.25;;;2.20;99.90;;;;;;4976687;28;20030;-75
2024/01/14 09:26:50;;;;;;;114.72;73.82;;;2.40;99.90;;;;;;4961863;28;20513;-75
2024/01/14 09:29:16;;;;;;;118.72;77.05;;;2.40;99.80;;;;;;4959254;28;20034;-74
2024/01/14 09:31:42;;;;;;;119.78;83.07;;;2.50;99.90;;;;;;4975778;28;20027;-74
2024/01/14 09:34:08;;;;;;;135.40;94.22;;;2.70;99.10;;;;;;4975387;28;20050;-73
2024/01/14 09:36:34;;;;;;;145.00;100.10;;;2.90;99.30;;;;;;4976161;28;20086;-72
2024/01/14 09:39:00;;;;;;;142.93;101.97;;;2.90;99.70;;;;;;4976322;28;20031;-73
2024/01/14 09:41:34;;;;;;;130.38;92.70;;;2.70;99.70;;;;;;4976247;28;20106;-73
2024/01/14 09:44:01;;;;;;;134.88;95.05;;;2.80;99.10;;;;;;4974939;28;20039;-74
2024/01/14 09:46:27;;;;;;;91.57;60.20;;;2.70;99.50;;;;;;4975694;28;20026;-74
2024/01/14 09:48:55;;;;;;;65.20;43.08;;;2.50;98.80;;;;;;4958705;28;20035;-75
2024/01/14 09:51:30;;;;;;;72.65;48.50;;;2.40;98.70;;;;;;4975896;28;20023;-74
2024/01/14 09:53:58;;;;;;;85.47;56.90;;;2.40;99.90;;;;;;4975956;28;20034;-74
2024/01/14 09:56:24;;;;;;;91.88;56.78;;;2.50;99.30;;;;;;4976252;28;20033;-74
2024/01/14 09:58:53;;;;;;;76.10;50.00;;;2.70;98.60;;;;;;4975060;28;20084;-74
2024/01/14 10:01:21;;;;;;;73.38;49.58;;;2.70;98.30;;;;;;4975758;28;20044;-75
2024/01/14 10:03:49;;;;;;;78.22;49.30;;;2.70;99.20;;;;;;4976015;28;20030;-74
2024/01/14 10:06:16;;;;;;;63.90;44.33;;;2.60;99.70;;;;;;4975881;28;20031;-74
2024/01/14 10:08:41;;;;;;;63.35;44.15;;;2.50;99.90;;;;;;4975600;28;20356;-74
2024/01/14 10:11:07;;;;;;;65.20;44.42;;;2.60;99.90;;;;;;4975192;28;20029;-74
2024/01/14 10:13:35;;;;;;;68.30;44.88;;;2.60;99.30;;;;;;4974476;28;20027;-73
2024/01/14 10:16:02;;;;;;;72.55;42.42;;;2.60;99.90;;;;;;4975566;28;20045;-72
2024/01/14 10:18:28;;;;;;;61.40;37.72;;;2.90;99.30;;;;;;4965669;28;20472;-72
2024/01/14 10:20:55;;;;;;;56.67;36.13;;;2.90;98.80;;;;;;4958330;28;20037;-73
2024/01/14 10:23:24;;;;;;;49.75;35.20;;;2.90;98.20;;;;;;4958301;28;20037;-74
2024/01/14 10:25:54;;;;;;;54.38;33.25;;;3.00;99.00;;;;;;4974741;28;20066;-73
2024/01/14 10:28:20;;;;;;;54.38;33.83;;;3.10;98.70;;;;;;4975358;28;20450;-73
2024/01/14 10:30:46;;;;;;;48.88;35.55;;;3.20;98.60;;;;;;4974899;28;20534;-72
2024/01/14 10:33:12;;;;;;;53.47;34.80;;;3.30;98.10;;;;;;4975124;28;20090;-73
2024/01/14 10:35:39;;;;;;;45.42;28.25;;;3.30;98.10;;;;;;4975224;28;20062;-74
2024/01/14 10:38:05;;;;;;;37.08;26.23;;;3.20;97.30;;;;;;4971535;28;20011;-74
2024/01/14 10:40:31;;;;;;;43.22;28.27;;;3.40;97.00;;;;;;4962862;28;20057;-73
2024/01/14 10:42:57;;;;;;;44.45;29.30;;;3.50;97.30;;;;;;4975297;28;20023;-73
2024/01/14 10:45:23;;;;;;;53.20;34.97;;;3.80;97.70;;;;;;4957892;28;20039;-73
2024/01/14 10:47:55;;;;;;;81.50;50.15;;;3.80;97.20;;;;;;4970288;28;20038;-72
2024/01/14 10:50:26;;;;;;;80.38;53.58;;;4.00;97.40;;;;;;4966349;28;20026;-73
2024/01/14 10:52:55;;;;;;;76.72;52.42;;;4.20;97.30;;;;;;4970701;28;20034;-73
2024/01/14 10:55:50;;;;;;;74.68;51.05;;;4.20;96.10;;;;;;4957999;28;20034;-73
2024/01/14 10:58:26;;;;;;;69.53;47.50;;;4.30;95.90;;;;;;4937574;29;20114;-73
2024/01/14 11:00:59;;;;;;;73.88;46.70;;;4.30;95.30;;;;;;4953507;29;20035;-73
2024/01/14 11:03:26;;;;;;;;;;;4.40;95.20;;;;;;4922939;29;20524;-72
2024/01/14 11:05:53;;;;;;;76.43;49.80;;;4.50;95.30;;;;;;4952130;29;19989;-72
2024/01/14 11:08:23;;;;;;;70.00;47.15;;;4.50;95.10;;;;;;4926204;29;20060;-73
2024/01/14 11:10:51;;;;;;;75.85;48.78;;;4.50;94.70;;;;;;4950515;29;20136;-72
2024/01/14 11:13:51;;;;;;;78.13;51.55;;;4.60;94.60;;;;;;4953669;29;20019;-72
2024/01/14 11:16:23;;;;;;;73.60;50.10;;;4.50;94.10;;;;;;4953365;29;20046;-72
2024/01/14 11:18:59;;;;;;;71.63;49.80;;;4.50;94.70;;;;;;4951571;29;20531;-73
2024/01/14 11:21:30;;;;;;;77.30;50.88;;;4.60;95.20;;;;;;4952770;29;20324;-72
2024/01/14 11:23:57;;;;;;;73.05;47.10;;;4.50;95.40;;;;;;4936779;29;20114;-72
2024/01/14 11:26:26;;;;;;;72.15;47.50;;;4.50;95.40;;;;;;4953234;29;20035;-73
2024/01/14 11:28:57;;;;;;;73.68;47.92;;;4.50;94.80;;;;;;4947661;29;20032;-74
2024/01/14 11:32:01;;;;;;;66.85;44.67;;;4.60;95.40;;;;;;4940770;29;20051;-72
2024/01/14 11:34:46;;;;;;;77.38;48.22;;;4.50;94.90;;;;;;4952567;28;20047;-73
2024/01/14 11:37:42;;;;;;;80.88;50.97;;;4.40;94.80;;;;;;4971258;28;20085;-70
2024/01/14 11:40:08;;;;;;;73.40;49.17;;;4.40;94.80;;;;;;4972745;28;20035;-75
2024/01/14 11:42:52;;;;;;;72.63;50.63;;;4.50;95.10;;;;;;4968412;28;20045;-74
2024/01/14 11:45:24;;;;;;;74.22;49.15;;;4.50;94.90;;;;;;4973340;28;20042;-74
2024/01/14 11:47:55;;;;;;;82.43;52.20;;;4.60;94.60;;;;;;4971576;28;20061;-73
2024/01/14 11:50:23;;;;;;;76.45;47.53;;;4.70;94.30;;;;;;4955056;29;20041;-74
2024/01/14 11:52:54;;;;;;;66.25;44.10;;;4.80;94.00;;;;;;4961739;28;20023;-74
2024/01/14 11:55:32;;;;;;;74.50;44.85;;;4.70;93.70;;;;;;4974283;28;20567;-74
2024/01/14 11:58:17;;;;;;;69.35;45.78;;;4.70;93.80;;;;;;4970368;28;20035;-72
2024/01/14 12:00:46;;;;;;;72.38;45.22;;;4.70;93.60;;;;;;4959407;28;20027;-73
2024/01/14 12:03:14;;;;;;;72.32;46.67;;;4.70;94.10;;;;;;4954908;28;20428;-73
2024/01/14 12:05:40;;;;;;;74.40;44.90;;;4.70;94.00;;;;;;4967333;28;20043;-72
2024/01/14 12:08:07;;;;;;;61.70;42.80;;;4.50;94.20;;;;;;4984197;28;20065;-73
2024/01/14 12:10:33;;;;;;;65.03;40.30;;;4.50;94.50;;;;;;4993586;28;20053;-72
2024/01/14 12:13:01;;;;;;;62.83;38.92;;;4.50;94.20;;;;;;4975608;28;20039;-73
2024/01/14 12:15:27;;;;;;;55.28;34.08;;;4.60;93.60;;;;;;4992835;28;20041;-73
2024/01/14 12:18:01;;;;;;;52.63;29.60;;;4.60;93.50;;;;;;4958411;28;20031;-74
2024/01/14 12:20:28;;;;;;;49.83;31.50;;;4.60;92.80;;;;;;4954860;29;20035;-73
2024/01/14 12:22:58;;;;;;;69.38;45.95;;;4.70;92.90;;;;;;4956236;28;20069;-73